createdAt,value
2018-11-06T00:02:07.726Z,99451.98
2018-11-06T00:04:43.596Z,99452.91
2018-11-06T00:07:14.266Z,99445.47
2018-11-06T00:09:44.999Z,99453.30
2018-11-06T00:12:15.752Z,99450.27
2018-11-06T00:14:46.494Z,99447.73
2018-11-06T00:17:17.169Z,99447.73
2018-11-06T00:19:47.784Z,99446.88
2018-11-06T00:22:18.441Z,99447.80
2018-11-06T00:24:49.083Z,99454.22
2018-11-06T00:27:19.745Z,99448.49
2018-11-06T00:29:50.381Z,99446.45
2018-11-06T00:32:21.044Z,99444.65
2018-11-06T00:34:51.704Z,99447.28
2018-11-06T00:37:22.386Z,99445.77
2018-11-06T00:39:53.046Z,99452.05
2018-11-06T00:42:23.727Z,99448.85
2018-11-06T00:44:54.471Z,99449.47
2018-11-06T00:47:25.165Z,99450.09
2018-11-06T00:49:55.808Z,99442.27
2018-11-06T00:52:26.514Z,99443.31
2018-11-06T00:54:57.173Z,99444.89
2018-11-06T00:57:27.811Z,99445.44
2018-11-06T00:59:58.817Z,99442.67
2018-11-06T01:02:29.453Z,99445.95
2018-11-06T01:05:00.175Z,99445.34
2018-11-06T01:07:31.267Z,99451.63
2018-11-06T01:10:01.996Z,99450.00
2018-11-06T01:12:32.686Z,99446.31
2018-11-06T01:15:03.610Z,99449.19
2018-11-06T01:17:34.303Z,99458.59
2018-11-06T01:20:06.288Z,99459.66
2018-11-06T01:22:37.046Z,99468.59
2018-11-06T01:25:09.039Z,99466.58
2018-11-06T01:27:39.952Z,99466.77
2018-11-06T01:30:13.826Z,99473.79
2018-11-06T01:32:45.292Z,99467.77
2018-11-06T01:35:16.468Z,99475.72
2018-11-06T01:37:47.630Z,99476.45
2018-11-06T01:40:19.207Z,99471.34
2018-11-06T01:42:49.857Z,99471.22
2018-11-06T01:45:20.566Z,99479.72
2018-11-06T01:47:51.221Z,99475.09
2018-11-06T01:50:21.992Z,99485.67
2018-11-06T01:52:52.735Z,99476.66
2018-11-06T01:55:23.376Z,99472.86
2018-11-06T01:57:54.058Z,99474.72
2018-11-06T02:00:24.703Z,99464.20
2018-11-06T02:02:55.341Z,99462.44
2018-11-06T02:05:26.014Z,99458.73
2018-11-06T02:07:56.667Z,99459.58
2018-11-06T02:10:27.319Z,99460.77
2018-11-06T02:12:57.903Z,99458.99
2018-11-06T02:15:28.564Z,99463.62
2018-11-06T02:17:59.225Z,99466.95
2018-11-06T02:20:29.843Z,99460.25
2018-11-06T02:23:00.479Z,99457.69
2018-11-06T02:25:31.111Z,99449.95
2018-11-06T02:28:01.688Z,99447.80
2018-11-06T02:30:32.408Z,99448.26
2018-11-06T02:33:03.026Z,99448.38
2018-11-06T02:35:33.640Z,99445.24
2018-11-06T02:38:04.391Z,99450.47
2018-11-06T02:40:35.041Z,99451.37
2018-11-06T02:43:05.842Z,99451.63
2018-11-06T02:45:36.482Z,99452.27
2018-11-06T02:48:07.727Z,99441.78
2018-11-06T02:50:38.407Z,99438.98
2018-11-06T02:53:09.048Z,99434.61
2018-11-06T02:55:39.693Z,99435.20
2018-11-06T02:58:10.348Z,99434.55
2018-11-06T03:00:41.012Z,99439.41
2018-11-06T03:03:11.682Z,99437.08
2018-11-06T03:05:42.271Z,99438.30
2018-11-06T03:08:12.912Z,99438.23
2018-11-06T03:10:43.528Z,99436.58
2018-11-06T03:13:14.224Z,99433.58
2018-11-06T03:15:44.893Z,99430.09
2018-11-06T03:18:15.532Z,99432.36
2018-11-06T03:20:46.239Z,99426.70
2018-11-06T03:23:16.844Z,99428.77
2018-11-06T03:25:47.546Z,99432.83
2018-11-06T03:28:18.230Z,99431.11
2018-11-06T03:30:48.887Z,99427.98
2018-11-06T03:33:19.563Z,99430.16
2018-11-06T03:35:50.265Z,99430.33
2018-11-06T03:38:21.059Z,99427.92
2018-11-06T03:40:51.724Z,99428.95
2018-11-06T03:43:22.387Z,99441.12
2018-11-06T03:45:53.009Z,99428.33
2018-11-06T03:48:23.708Z,99422.92
2018-11-06T03:50:54.392Z,99425.09
2018-11-06T03:53:25.033Z,99436.84
2018-11-06T03:55:55.728Z,99443.70
2018-11-06T03:58:26.342Z,99447.91
2018-11-06T04:00:56.993Z,99455.12
2018-11-06T04:03:27.615Z,99458.77
2018-11-06T04:05:58.359Z,99454.98
2018-11-06T04:08:29.042Z,99455.38
2018-11-06T04:10:59.723Z,99451.92
2018-11-06T04:13:30.351Z,99452.28
2018-11-06T04:16:01.023Z,99447.88
2018-11-06T04:18:31.682Z,99434.28
2018-11-06T04:21:02.349Z,99436.28
2018-11-06T04:23:32.935Z,99433.58
2018-11-06T04:26:03.641Z,99439.89
2018-11-06T04:28:34.255Z,99443.27
2018-11-06T04:31:05.139Z,99437.63
2018-11-06T04:33:35.808Z,99441.38
2018-11-06T04:36:06.486Z,99453.70
2018-11-06T04:38:37.168Z,99465.19
2018-11-06T04:41:07.847Z,99473.92
2018-11-06T04:43:38.410Z,99479.05
2018-11-06T04:46:09.049Z,99475.05
2018-11-06T04:48:39.761Z,99465.84
2018-11-06T04:51:10.342Z,99463.59
2018-11-06T04:53:40.938Z,99466.33
2018-11-06T04:56:11.600Z,99470.98
2018-11-06T04:58:42.232Z,99472.26
2018-11-06T05:01:12.884Z,99464.52
2018-11-06T05:03:46.514Z,99460.40
2018-11-06T05:06:48.162Z,99447.88
2018-11-06T05:09:18.772Z,99454.16
2018-11-06T05:11:49.415Z,99449.71
2018-11-06T05:14:20.089Z,99449.81
2018-11-06T05:16:50.706Z,99452.48
2018-11-06T05:19:21.405Z,99452.70
2018-11-06T05:21:52.066Z,99444.58
2018-11-06T05:24:22.690Z,99439.64
2018-11-06T05:26:53.331Z,99446.39
2018-11-06T05:29:23.993Z,99443.07
2018-11-06T05:31:54.727Z,99451.22
2018-11-06T05:34:25.393Z,99449.12
2018-11-06T05:36:56.083Z,99456.19
2018-11-06T05:39:26.840Z,99462.63
2018-11-06T05:41:57.431Z,99472.63
2018-11-06T05:44:28.040Z,99471.77
2018-11-06T05:46:58.724Z,99474.66
2018-11-06T05:49:29.369Z,99475.91
2018-11-06T05:52:00.014Z,99477.17
2018-11-06T05:54:30.664Z,99475.00
2018-11-06T05:57:01.314Z,99483.25
2018-11-06T05:59:31.972Z,99486.73
2018-11-06T06:02:02.651Z,99476.11
2018-11-06T06:04:33.319Z,99467.44
2018-11-06T06:07:03.985Z,99463.27
2018-11-06T06:09:34.660Z,99460.22
2018-11-06T06:12:05.463Z,99455.48
2018-11-06T06:14:36.099Z,99448.94
2018-11-06T06:17:07.796Z,99445.48
2018-11-06T06:19:38.503Z,99455.14
2018-11-06T06:22:09.190Z,99460.48
2018-11-06T06:24:39.848Z,99466.60
2018-11-06T06:27:10.499Z,99475.22
2018-11-06T06:29:41.195Z,99477.97
2018-11-06T06:32:11.795Z,99463.25
2018-11-06T06:34:42.564Z,99466.95
2018-11-06T06:37:13.091Z,99466.40
2018-11-06T06:39:43.711Z,99473.23
2018-11-06T06:42:14.379Z,99473.94
2018-11-06T06:44:45.073Z,99471.41
2018-11-06T06:47:15.821Z,99473.36
2018-11-06T06:49:46.482Z,99475.91
2018-11-06T06:52:17.136Z,99479.28
2018-11-06T06:54:47.931Z,99490.28
2018-11-06T06:57:18.611Z,99484.81
2018-11-06T06:59:49.336Z,99488.66
2018-11-06T07:02:20.049Z,99490.09
2018-11-06T07:04:50.704Z,99507.28
2018-11-06T07:07:21.358Z,99508.58
2018-11-06T07:09:52.046Z,99515.34
2018-11-06T07:12:22.688Z,99511.98
2018-11-06T07:14:53.460Z,99508.35
2018-11-06T07:17:24.122Z,99516.44
2018-11-06T07:19:54.780Z,99515.95
2018-11-06T07:22:25.451Z,99513.06
2018-11-06T07:24:56.103Z,99513.72
2018-11-06T07:27:26.796Z,99512.09
2018-11-06T07:29:57.601Z,99509.00
2018-11-06T07:32:28.454Z,99509.09
2018-11-06T07:34:59.247Z,99517.65
2018-11-06T07:37:29.896Z,99515.66
2018-11-06T07:40:00.564Z,99520.24
2018-11-06T07:42:31.564Z,99523.20
2018-11-06T07:45:02.332Z,99535.75
2018-11-06T07:47:33.048Z,99537.92
2018-11-06T07:50:03.773Z,99536.00
2018-11-06T07:52:34.497Z,99535.66
2018-11-06T07:55:06.276Z,99539.98
2018-11-06T07:57:36.969Z,99547.40
2018-11-06T08:00:17.356Z,99547.65
2018-11-06T08:02:48.700Z,99548.36
2018-11-06T08:05:19.546Z,99554.59
2018-11-06T08:07:51.028Z,99555.06
2018-11-06T08:10:21.811Z,99560.75
2018-11-06T08:12:53.827Z,99562.50
2018-11-06T08:15:24.533Z,99561.13
2018-11-06T08:17:55.204Z,99560.56
2018-11-06T08:20:25.909Z,99565.28
2018-11-06T08:22:56.568Z,99561.97
2018-11-06T08:25:27.183Z,99560.61
2018-11-06T08:27:57.844Z,99567.20
2018-11-06T08:30:28.531Z,99566.67
2018-11-06T08:32:59.155Z,99563.56
2018-11-06T08:35:29.816Z,99562.45
2018-11-06T08:38:00.474Z,99554.67
2018-11-06T08:40:31.172Z,99557.65
2018-11-06T08:43:01.900Z,99557.28
2018-11-06T08:45:32.564Z,99563.08
2018-11-06T08:48:03.199Z,99561.84
2018-11-06T08:50:33.864Z,99560.94
2018-11-06T08:53:04.560Z,99563.20
2018-11-06T08:55:35.232Z,99561.08
2018-11-06T08:58:05.947Z,99553.17
2018-11-06T09:00:36.646Z,99553.13
2018-11-06T09:03:07.308Z,99552.04
2018-11-06T09:05:38.036Z,99550.74
2018-11-06T09:08:08.698Z,99543.62
2018-11-06T09:10:39.378Z,99541.48
2018-11-06T09:13:10.033Z,99540.07
2018-11-06T09:15:40.656Z,99537.53
2018-11-06T09:18:11.343Z,99539.95
2018-11-06T09:20:42.051Z,99528.03
2018-11-06T09:23:12.758Z,99527.19
2018-11-06T09:25:43.449Z,99525.17
2018-11-06T09:28:14.110Z,99523.95
2018-11-06T09:30:44.850Z,99523.86
2018-11-06T09:33:15.517Z,99527.52
2018-11-06T09:35:46.148Z,99529.16
2018-11-06T09:38:16.825Z,99530.45
2018-11-06T09:40:47.539Z,99528.78
2018-11-06T09:43:18.173Z,99528.24
2018-11-06T09:45:48.796Z,99526.16
2018-11-06T09:48:19.501Z,99526.11
2018-11-06T09:50:50.214Z,99521.16
2018-11-06T09:53:20.988Z,99520.98
2018-11-06T09:55:51.664Z,99519.61
2018-11-06T09:58:22.334Z,99519.63
2018-11-06T10:00:53.012Z,99516.31
2018-11-06T10:03:23.717Z,99512.09
2018-11-06T10:05:54.348Z,99521.56
2018-11-06T10:08:25.011Z,99518.96
2018-11-06T10:10:55.690Z,99516.00
2018-11-06T10:13:26.348Z,99509.11
2018-11-06T10:15:57.013Z,99510.20
2018-11-06T10:18:27.664Z,99513.22
2018-11-06T10:20:58.321Z,99505.86
2018-11-06T10:23:29.034Z,99507.22
2018-11-06T10:25:59.715Z,99504.80
2018-11-06T10:28:30.391Z,99500.94
2018-11-06T10:31:01.074Z,99498.28
2018-11-06T10:33:31.831Z,99499.21
2018-11-06T10:36:02.466Z,99500.52
2018-11-06T10:38:33.116Z,99500.53
2018-11-06T10:41:03.728Z,99496.80
2018-11-06T10:43:34.459Z,99496.38
2018-11-06T10:46:05.272Z,99492.59
2018-11-06T10:48:35.930Z,99493.38
2018-11-06T10:51:06.891Z,99494.66
2018-11-06T10:53:37.538Z,99492.64
2018-11-06T10:56:08.234Z,99486.92
2018-11-06T10:58:38.940Z,99487.74
2018-11-06T11:02:18.773Z,99482.39
2018-11-06T11:04:49.897Z,99482.28
2018-11-06T11:07:20.584Z,99483.37
2018-11-06T11:09:51.239Z,99478.93
2018-11-06T11:12:21.963Z,99470.41
2018-11-06T11:14:52.617Z,99465.89
2018-11-06T11:17:23.232Z,99464.07
2018-11-06T11:19:53.944Z,99463.89
2018-11-06T11:22:24.621Z,99455.13
2018-11-06T11:24:55.360Z,99460.56
2018-11-06T11:27:25.988Z,99450.48
2018-11-06T11:29:56.650Z,99446.34
2018-11-06T11:32:27.335Z,99447.13
2018-11-06T11:34:57.990Z,99442.53
2018-11-06T11:37:28.701Z,99446.47
2018-11-06T11:39:59.355Z,99435.67
2018-11-06T11:42:30.008Z,99441.41
2018-11-06T11:45:00.671Z,99438.50
2018-11-06T11:47:31.313Z,99435.59
2018-11-06T11:50:02.027Z,99433.05
2018-11-06T11:52:32.679Z,99437.93
2018-11-06T11:55:03.352Z,99437.59
2018-11-06T11:57:33.980Z,99432.02
2018-11-06T12:00:05.038Z,99424.13
2018-11-06T12:02:35.691Z,99423.71
2018-11-06T12:05:08.001Z,99418.86
2018-11-06T12:07:38.737Z,99417.32
2018-11-06T12:10:11.074Z,99420.17
2018-11-06T12:12:42.005Z,99411.13
2018-11-06T12:15:15.494Z,99417.52
2018-11-06T12:17:46.947Z,99414.32
2018-11-06T12:20:18.002Z,99418.06
2018-11-06T12:22:48.732Z,99416.41
2018-11-06T12:25:19.742Z,99414.81
2018-11-06T12:27:50.082Z,99413.00
2018-11-06T12:30:20.794Z,99409.66
2018-11-06T12:32:51.479Z,99401.45
2018-11-06T12:35:22.171Z,99392.53
2018-11-06T12:37:52.801Z,99391.03
2018-11-06T12:40:23.488Z,99384.92
2018-11-06T12:42:54.368Z,99384.34
2018-11-06T12:45:25.025Z,99381.20
2018-11-06T12:47:55.676Z,99382.55
2018-11-06T12:50:26.428Z,99380.14
2018-11-06T12:52:57.022Z,99382.60
2018-11-06T12:55:27.674Z,99380.95
2018-11-06T12:57:58.265Z,99379.41
2018-11-06T13:00:28.928Z,99380.46
2018-11-06T13:02:59.590Z,99379.72
2018-11-06T13:05:30.279Z,99380.77
2018-11-06T13:08:00.917Z,99372.11
2018-11-06T13:10:31.602Z,99373.09
2018-11-06T13:13:02.227Z,99376.03
2018-11-06T13:15:32.903Z,99373.05
2018-11-06T13:18:03.768Z,99370.40
2018-11-06T13:20:34.480Z,99366.92
2018-11-06T13:23:05.210Z,99366.42
2018-11-06T13:25:35.906Z,99359.72
2018-11-06T13:28:06.631Z,99360.66
2018-11-06T13:30:37.357Z,99358.66
2018-11-06T13:33:08.043Z,99356.67
2018-11-06T13:35:38.674Z,99351.72
2018-11-06T13:38:09.311Z,99350.17
2018-11-06T13:40:40.047Z,99350.45
2018-11-06T13:43:10.802Z,99343.20
2018-11-06T13:45:41.764Z,99345.27
2018-11-06T13:48:12.117Z,99341.27
2018-11-06T13:50:42.757Z,99333.68
2018-11-06T13:53:13.435Z,99333.89
2018-11-06T13:55:44.106Z,99333.89
2018-11-06T13:58:14.724Z,99341.07
2018-11-06T14:00:45.362Z,99333.62
2018-11-06T14:03:15.980Z,99333.06
2018-11-06T14:05:46.653Z,99328.67
2018-11-06T14:08:17.279Z,99328.44
2018-11-06T14:10:47.920Z,99320.83
2018-11-06T14:13:18.565Z,99320.22
2018-11-06T14:15:49.219Z,99319.52
2018-11-06T14:18:19.915Z,99321.54
2018-11-06T14:20:50.552Z,99316.27
2018-11-06T14:23:21.253Z,99314.31
2018-11-06T14:25:51.862Z,99319.45
2018-11-06T14:28:22.544Z,99328.20
2018-11-06T14:30:53.156Z,99327.45
2018-11-06T14:33:23.812Z,99322.94
2018-11-06T14:35:54.628Z,99324.61
2018-11-06T14:38:25.295Z,99317.28
2018-11-06T14:40:55.877Z,99324.55
2018-11-06T14:43:26.612Z,99325.71
2018-11-06T14:45:57.278Z,99319.14
2018-11-06T14:48:27.999Z,99319.28
2018-11-06T14:50:58.710Z,99328.89
2018-11-06T14:53:29.713Z,99322.28
2018-11-06T14:56:00.485Z,99324.52
2018-11-06T14:58:31.077Z,99322.44
2018-11-06T15:01:01.737Z,99325.63
2018-11-06T15:03:32.366Z,99324.81
2018-11-06T15:06:03.044Z,99328.02
2018-11-06T15:08:33.729Z,99335.89
2018-11-06T15:11:04.395Z,99328.46
2018-11-06T15:13:35.000Z,99336.55
2018-11-06T15:16:05.869Z,99329.36
2018-11-06T15:18:36.483Z,99330.95
2018-11-06T15:21:07.311Z,99332.69
2018-11-06T15:23:37.931Z,99334.75
2018-11-06T15:26:08.566Z,99330.27
2018-11-06T15:28:39.207Z,99326.38
2018-11-06T15:31:09.883Z,99327.89
2018-11-06T15:33:40.490Z,99323.48
2018-11-06T15:36:11.128Z,99324.38
2018-11-06T15:38:41.757Z,99330.25
2018-11-06T15:41:12.475Z,99322.81
2018-11-06T15:43:43.139Z,99323.52
2018-11-06T15:46:13.764Z,99322.44
2018-11-06T15:48:44.468Z,99322.85
2018-11-06T15:51:15.003Z,99314.47
2018-11-06T15:53:45.677Z,99318.69
2018-11-06T15:56:16.326Z,99319.19
2018-11-06T15:58:47.040Z,99319.41
2018-11-06T16:01:17.759Z,99314.00
2018-11-06T16:03:48.467Z,99315.81
2018-11-06T16:06:19.372Z,99322.23
2018-11-06T16:08:50.097Z,99318.92
2018-11-06T16:11:20.907Z,99312.82
2018-11-06T16:13:51.507Z,99313.69
2018-11-06T16:16:22.186Z,99309.97
2018-11-06T16:18:53.002Z,99319.09
2018-11-06T16:21:23.640Z,99320.81
2018-11-06T16:23:54.360Z,99325.47
2018-11-06T16:26:24.991Z,99325.37
2018-11-06T16:28:55.685Z,99320.81
2018-11-06T16:31:26.367Z,99321.60
2018-11-06T16:33:57.086Z,99324.05
2018-11-06T16:36:27.767Z,99322.24
2018-11-06T16:38:58.450Z,99318.29
2018-11-06T16:41:29.147Z,99319.03
2018-11-06T16:43:59.779Z,99321.16
2018-11-06T16:46:30.468Z,99326.25
2018-11-06T16:49:01.104Z,99328.08
2018-11-06T16:51:31.827Z,99328.89
2018-11-06T16:54:02.450Z,99324.09
2018-11-06T16:56:33.113Z,99330.47
2018-11-06T16:59:03.849Z,99329.14
2018-11-06T17:01:34.487Z,99336.05
2018-11-06T17:04:05.527Z,99336.63
2018-11-06T17:06:41.476Z,99339.30
2018-11-06T17:09:12.130Z,99343.27
2018-11-06T17:11:42.784Z,99336.27
2018-11-06T17:14:13.752Z,99337.00
2018-11-06T17:16:44.551Z,99341.92
2018-11-06T17:19:15.603Z,99345.33
2018-11-06T17:21:46.248Z,99338.06
2018-11-06T17:24:16.889Z,99337.47
2018-11-06T17:26:47.532Z,99343.86
2018-11-06T17:29:18.172Z,99341.46
2018-11-06T17:31:48.888Z,99341.32
2018-11-06T17:34:19.569Z,99339.13
2018-11-06T17:36:50.246Z,99341.69
2018-11-06T17:39:20.938Z,99349.62
2018-11-06T17:41:51.742Z,99355.72
2018-11-06T17:44:22.503Z,99368.22
2018-11-06T17:46:53.217Z,99370.39
2018-11-06T17:49:23.802Z,99373.39
2018-11-06T17:51:54.470Z,99375.05
2018-11-06T17:54:25.213Z,99375.78
2018-11-06T17:56:55.913Z,99387.23
2018-11-06T17:59:26.527Z,99386.77
2018-11-06T18:01:57.157Z,99392.41
2018-11-06T18:04:27.647Z,99398.48
2018-11-06T18:06:58.196Z,99406.17
2018-11-06T18:09:28.850Z,99409.16
2018-11-06T18:11:59.574Z,99414.58
2018-11-06T18:14:30.499Z,99411.77
2018-11-06T18:17:01.261Z,99413.47
2018-11-06T18:19:32.108Z,99402.02
2018-11-06T18:22:02.755Z,99401.55
2018-11-06T18:24:33.450Z,99399.63
2018-11-06T18:27:04.104Z,99397.19
2018-11-06T18:29:34.805Z,99405.23
2018-11-06T18:32:05.757Z,99399.83
2018-11-06T18:34:36.395Z,99401.41
2018-11-06T18:37:07.152Z,99390.94
2018-11-06T18:39:37.790Z,99394.45
2018-11-06T18:42:08.466Z,99396.38
2018-11-06T18:44:39.134Z,99397.58
2018-11-06T18:47:09.802Z,99394.79
2018-11-06T18:49:40.598Z,99404.09
2018-11-06T18:52:11.241Z,99406.98
2018-11-06T18:54:41.911Z,99398.27
2018-11-06T18:57:12.545Z,99408.42
2018-11-06T18:59:43.175Z,99411.44
2018-11-06T19:02:13.793Z,99415.92
2018-11-06T19:04:44.479Z,99413.28
2018-11-06T19:07:16.019Z,99424.00
2018-11-06T19:09:46.688Z,99419.92
2018-11-06T19:12:17.365Z,99414.23
2018-11-06T19:14:48.167Z,99422.07
2018-11-06T19:17:18.901Z,99423.17
2018-11-06T19:19:49.564Z,99424.97
2018-11-06T19:22:20.208Z,99424.88
2018-11-06T19:24:51.082Z,99441.95
2018-11-06T19:27:21.767Z,99449.20
2018-11-06T19:29:52.721Z,99448.23
2018-11-06T19:32:23.398Z,99446.66
2018-11-06T19:34:54.108Z,99448.72
2018-11-06T19:37:24.806Z,99458.11
2018-11-06T19:39:55.471Z,99457.41
2018-11-06T19:42:26.154Z,99459.92
2018-11-06T19:44:56.839Z,99461.61
2018-11-06T19:47:27.605Z,99462.58
2018-11-06T19:49:58.202Z,99457.02
2018-11-06T19:52:28.772Z,99460.25
2018-11-06T19:54:59.472Z,99463.66
2018-11-06T19:57:30.345Z,99471.82
2018-11-06T20:00:00.940Z,99472.45
2018-11-06T20:02:32.469Z,99471.59
2018-11-06T20:05:03.207Z,99470.49
2018-11-06T20:07:33.871Z,99464.97
2018-11-06T20:10:04.865Z,99460.36
2018-11-06T20:12:35.549Z,99463.36
2018-11-06T20:15:08.958Z,99467.81
2018-11-06T20:17:40.670Z,99469.61
2018-11-06T20:20:15.824Z,99471.76
2018-11-06T20:22:46.755Z,99471.63
2018-11-06T20:25:17.585Z,99472.33
2018-11-06T20:27:48.512Z,99467.74
2018-11-06T20:30:21.716Z,99465.34
2018-11-06T20:32:52.483Z,99473.13
2018-11-06T20:35:23.292Z,99470.95
2018-11-06T20:37:54.229Z,99467.05
2018-11-06T20:40:26.041Z,99466.59
2018-11-06T20:42:56.860Z,99459.23
2018-11-06T20:45:27.550Z,99455.59
2018-11-06T20:47:58.324Z,99460.51
2018-11-06T20:50:29.176Z,99465.08
2018-11-06T20:52:59.972Z,99455.68
2018-11-06T20:55:30.834Z,99457.67
2018-11-06T20:58:02.648Z,99457.33
2018-11-06T21:00:33.403Z,99462.50
2018-11-06T21:03:04.223Z,99463.34
2018-11-06T21:05:35.036Z,99457.95
2018-11-06T21:08:05.791Z,99454.00
2018-11-06T21:10:36.531Z,99455.64
2018-11-06T21:13:07.446Z,99467.77
2018-11-06T21:15:38.311Z,99464.39
2018-11-06T21:18:09.184Z,99462.00
2018-11-06T21:20:40.508Z,99463.88
2018-11-06T21:23:11.284Z,99458.91
2018-11-06T21:25:42.212Z,99466.52
2018-11-06T21:28:12.660Z,99463.12
2018-11-06T21:30:43.604Z,99461.53
2018-11-06T21:33:14.891Z,99455.71
2018-11-06T21:35:45.526Z,99463.78
2018-11-06T21:38:16.146Z,99470.98
2018-11-06T21:40:46.863Z,99485.88
2018-11-06T21:43:17.483Z,99493.17
2018-11-06T21:45:48.264Z,99501.17
2018-11-06T21:48:19.147Z,99496.52
2018-11-06T21:50:49.909Z,99491.91
2018-11-06T21:53:20.572Z,99495.94
2018-11-06T21:55:51.289Z,99482.11
2018-11-06T21:58:21.901Z,99483.91
2018-11-06T22:00:52.686Z,99485.28
2018-11-06T22:03:23.416Z,99498.64
2018-11-06T22:05:54.029Z,99495.46
2018-11-06T22:08:24.693Z,99494.32
2018-11-06T22:10:55.320Z,99494.99
2018-11-06T22:13:25.976Z,99491.88
2018-11-06T22:15:56.629Z,99495.31
2018-11-06T22:18:27.302Z,99492.52
2018-11-06T22:20:57.919Z,99492.48
2018-11-06T22:23:28.575Z,99493.22
2018-11-06T22:25:59.180Z,99489.77
2018-11-06T22:28:29.876Z,99496.43
2018-11-06T22:31:00.505Z,99501.56
2018-11-06T22:33:34.204Z,99500.00
2018-11-06T22:36:04.960Z,99494.12
2018-11-06T22:38:35.616Z,99507.59
2018-11-06T22:41:06.486Z,99504.95
2018-11-06T22:43:37.160Z,99499.10
2018-11-06T22:46:07.810Z,99508.24
2018-11-06T22:48:38.480Z,99501.52
2018-11-06T22:51:09.105Z,99501.09
2018-11-06T22:53:39.823Z,99498.09
2018-11-06T22:56:10.460Z,99489.66
2018-11-06T22:58:41.163Z,99502.80
2018-11-06T23:01:17.771Z,99504.05
2018-11-06T23:03:48.470Z,99503.00
2018-11-06T23:06:19.868Z,99495.22
2018-11-06T23:08:50.311Z,99498.91
2018-11-06T23:11:20.946Z,99506.23
2018-11-06T23:13:52.302Z,99501.05
2018-11-06T23:16:22.948Z,99501.41
2018-11-06T23:18:53.696Z,99507.29
2018-11-06T23:21:24.352Z,99505.61
2018-11-06T23:23:54.974Z,99501.53
2018-11-06T23:26:25.733Z,99506.59
2018-11-06T23:28:56.351Z,99502.55
2018-11-06T23:31:27.050Z,99509.70
2018-11-06T23:33:57.623Z,99502.05
2018-11-06T23:36:28.264Z,99490.87
2018-11-06T23:38:58.958Z,99492.98
2018-11-06T23:41:29.612Z,99492.05
2018-11-06T23:44:00.242Z,99495.27
2018-11-06T23:46:30.839Z,99491.19
2018-11-06T23:49:01.484Z,99489.91
2018-11-06T23:51:32.107Z,99499.28
2018-11-06T23:54:05.694Z,99499.17
2018-11-06T23:56:36.354Z,99504.53
2018-11-06T23:59:07.146Z,99496.37
